This is the latest recevied weather packets stored in our database for station/object SP5MRF-11. If no packets are shown the sender has not sent any weather packets the latest 10 day(s).
| Time | Temp. | Humidity | Pressure | Rain* | Wind** | Luminosity | Snow |
|---|---|---|---|---|---|---|---|
| 1788513453 | 24.44° C | 55% | 1012.5 hPa | - | - | - | - |
| 1788512604 | 20.56° C | 58% | 1012.9 hPa | - | - | - | - |
| 1788512553 | 20.56° C | 58% | 1012.9 hPa | - | - | - | - |
| 1788511653 | 22.78° C | 56% | 1012.7 hPa | - | - | - | - |
| 1788510753 | 22.78° C | 57% | 1012.8 hPa | - | - | - | - |
| 1788509852 | 21.11° C | 58% | 1013 hPa | - | - | - | - |
| 1788508952 | 20° C | 58% | 1013 hPa | - | - | - | - |
| 1788508052 | 20.56° C | 58% | 1012.9 hPa | - | - | - | - |
| 1788507152 | 20.56° C | 58% | 1012.6 hPa | - | - | - | - |
| 1788506252 | 20° C | 58% | 1012.6 hPa | - | - | - | - |
| 1788505397 | 19.44° C | 58% | 1012.9 hPa | - | - | - | - |
| 1788505352 | 19.44° C | 58% | 1012.9 hPa | - | - | - | - |
| 1788504451 | 19.44° C | 59% | 1012.9 hPa | - | - | - | - |
| 1788503551 | 18.33° C | 59% | 1012.9 hPa | - | - | - | - |
| 1788502651 | 17.78° C | 59% | 1013 hPa | - | - | - | - |
| 1788501759 | 17.78° C | 59% | 1013.1 hPa | - | - | - | - |
| 1788500859 | 17.22° C | 60% | 1013 hPa | - | - | - | - |
| 1788499959 | 17.22° C | 59% | 1013 hPa | - | - | - | - |
| 1788499058 | 17.22° C | 59% | 1013 hPa | - | - | - | - |
| 1788498158 | 17.22° C | 58% | 1013 hPa | - | - | - | - |
| 1788497258 | 17.22° C | 58% | 1013 hPa | - | - | - | - |
| 1788496358 | 16.67° C | 58% | 1013.1 hPa | - | - | - | - |
| 1788495458 | 16.67° C | 58% | 1013.2 hPa | - | - | - | - |
| 1788494605 | 16.11° C | 58% | 1013.3 hPa | - | - | - | - |
| 1788494558 | 16.11° C | 58% | 1013.3 hPa | - | - | - | - |
* Rain since midnight (hover to see other rain measurements)
** Current wind speed in m/s (hover to see current wind gust speed)